createdAt,value
2022-09-18T00:01:10.098Z,99.90
2022-09-18T00:03:43.137Z,99.90
2022-09-18T00:06:21.170Z,99.90
2022-09-18T00:08:56.565Z,99.90
2022-09-18T00:11:33.002Z,99.90
2022-09-18T00:14:07.471Z,99.90
2022-09-18T00:19:13.860Z,99.90
2022-09-18T00:21:48.651Z,99.90
2022-09-18T00:26:55.405Z,99.90
2022-09-18T00:29:28.101Z,99.90
2022-09-18T00:32:00.344Z,99.90
2022-09-18T00:34:32.481Z,99.90
2022-09-18T00:39:37.233Z,99.90
2022-09-18T00:42:13.163Z,99.90
2022-09-18T00:44:45.972Z,99.90
2022-09-18T00:47:27.708Z,99.90
2022-09-18T00:50:05.084Z,99.90
2022-09-18T00:52:59.383Z,99.90
2022-09-18T00:55:34.555Z,99.90
2022-09-18T00:58:06.837Z,99.90
2022-09-18T01:00:39.430Z,99.90
2022-09-18T01:06:09.375Z,99.90
2022-09-18T01:08:55.795Z,99.90
2022-09-18T01:11:48.451Z,99.90
2022-09-18T01:14:33.680Z,99.90
2022-09-18T01:17:26.164Z,99.90
2022-09-18T01:20:19.071Z,99.90
2022-09-18T01:23:25.228Z,99.90
2022-09-18T01:26:25.064Z,99.90
2022-09-18T01:29:10.522Z,99.90
2022-09-18T01:32:21.112Z,99.90
2022-09-18T01:35:40.633Z,99.90
2022-09-18T01:38:25.580Z,99.90
2022-09-18T01:41:05.093Z,99.90
2022-09-18T01:43:39.069Z,99.90
2022-09-18T01:46:16.035Z,99.90
2022-09-18T01:49:03.285Z,99.90
2022-09-18T01:51:43.634Z,99.90
2022-09-18T01:54:18.906Z,99.90
2022-09-18T01:57:23.731Z,99.90
2022-09-18T02:00:09.489Z,99.90
2022-09-18T02:03:08.213Z,99.90
2022-09-18T02:05:46.270Z,99.90
2022-09-18T02:08:31.337Z,99.90
2022-09-18T02:11:11.906Z,99.90
2022-09-18T02:13:53.825Z,99.90
2022-09-18T02:16:51.058Z,99.90
2022-09-18T02:19:28.564Z,99.90
2022-09-18T02:22:06.570Z,99.90
2022-09-18T02:24:41.826Z,99.90
2022-09-18T02:27:16.759Z,99.90
2022-09-18T02:29:49.435Z,99.90
2022-09-18T02:32:22.058Z,99.90
2022-09-18T02:34:53.854Z,99.90
2022-09-18T02:37:36.739Z,99.90
2022-09-18T02:40:33.150Z,99.90
2022-09-18T02:43:31.035Z,99.90
2022-09-18T02:46:24.010Z,99.90
2022-09-18T02:49:10.001Z,99.90
2022-09-18T02:51:56.933Z,99.90
2022-09-18T02:54:44.978Z,99.90
2022-09-18T02:57:29.368Z,99.90
2022-09-18T03:00:02.583Z,99.90
2022-09-18T03:02:37.864Z,99.90
2022-09-18T03:05:11.426Z,99.90
2022-09-18T03:08:10.864Z,99.90
2022-09-18T03:10:43.279Z,99.90
2022-09-18T03:15:48.481Z,99.90
2022-09-18T03:18:21.113Z,99.90
2022-09-18T03:23:26.720Z,99.90
2022-09-18T03:26:08.130Z,99.90
2022-09-18T03:28:39.951Z,99.90
2022-09-18T03:31:13.221Z,99.90
2022-09-18T03:33:45.591Z,99.90
2022-09-18T03:38:50.900Z,99.90
2022-09-18T03:41:24.423Z,99.90
2022-09-18T03:46:29.683Z,99.90
2022-09-18T03:51:39.361Z,99.90
2022-09-18T03:54:12.904Z,99.90
2022-09-18T03:56:57.622Z,99.90
2022-09-18T03:59:54.431Z,99.90
2022-09-18T04:02:46.166Z,99.90
2022-09-18T04:05:54.271Z,99.90
2022-09-18T04:09:01.134Z,99.90
2022-09-18T04:11:44.049Z,99.90
2022-09-18T04:14:15.927Z,99.90
2022-09-18T04:16:48.863Z,99.90
2022-09-18T04:19:20.569Z,99.90
2022-09-18T04:24:27.333Z,99.90
2022-09-18T04:26:59.968Z,99.90
2022-09-18T04:32:06.583Z,99.90
2022-09-18T04:34:39.274Z,99.90
2022-09-18T04:37:14.347Z,99.90
2022-09-18T04:39:46.995Z,99.90
2022-09-18T04:42:20.317Z,99.90
2022-09-18T04:44:52.118Z,99.90
2022-09-18T04:55:07.148Z,99.90
2022-09-18T04:57:44.750Z,99.90
2022-09-18T05:00:18.757Z,99.90
2022-09-18T05:02:51.583Z,99.90
2022-09-18T05:05:28.663Z,99.90
2022-09-18T05:08:01.887Z,99.90
2022-09-18T05:13:09.056Z,99.90
2022-09-18T05:15:48.449Z,99.90
2022-09-18T05:21:04.910Z,99.90
2022-09-18T05:31:16.503Z,99.90
2022-09-18T05:33:51.650Z,99.90
2022-09-18T05:36:23.888Z,99.90
2022-09-18T05:38:55.682Z,99.90
2022-09-18T05:41:29.642Z,99.90
2022-09-18T05:44:01.554Z,99.90
2022-09-18T05:46:34.177Z,99.90
2022-09-18T05:54:13.442Z,99.90
2022-09-18T05:56:49.390Z,99.90
2022-09-18T05:59:21.805Z,99.90
2022-09-18T06:07:11.566Z,99.90
2022-09-18T06:12:17.701Z,99.90
2022-09-18T06:14:49.402Z,99.90
2022-09-18T06:17:23.148Z,99.90
2022-09-18T06:22:33.410Z,99.90
2022-09-18T06:25:05.624Z,99.90
2022-09-18T06:27:39.995Z,99.90
2022-09-18T06:30:12.337Z,99.90
2022-09-18T06:32:45.827Z,99.90
2022-09-18T06:35:18.071Z,99.90
2022-09-18T06:43:21.069Z,99.90
2022-09-18T06:45:58.172Z,99.90
2022-09-18T06:48:32.463Z,99.90
2022-09-18T06:51:07.465Z,99.90
2022-09-18T06:53:52.002Z,99.90
2022-09-18T06:56:25.495Z,99.90
2022-09-18T07:01:32.223Z,99.90
2022-09-18T07:04:13.542Z,99.90
2022-09-18T07:06:47.878Z,99.90
2022-09-18T07:09:20.697Z,99.90
2022-09-18T07:12:00.205Z,99.90
2022-09-18T07:14:40.177Z,99.90
2022-09-18T07:17:18.707Z,99.90
2022-09-18T07:22:32.271Z,99.90
2022-09-18T07:25:06.013Z,99.90
2022-09-18T07:27:39.793Z,99.90
2022-09-18T07:30:12.259Z,99.90
2022-09-18T07:32:45.315Z,99.90
2022-09-18T07:35:21.208Z,99.90
2022-09-18T07:37:58.157Z,99.90
2022-09-18T07:48:30.312Z,99.90
2022-09-18T07:51:11.162Z,99.90
2022-09-18T07:58:50.430Z,99.90
2022-09-18T08:04:04.272Z,99.90
2022-09-18T08:07:04.725Z,99.90
2022-09-18T08:12:43.394Z,99.90
2022-09-18T08:18:03.851Z,99.90
2022-09-18T08:20:58.686Z,99.90
2022-09-18T08:23:51.670Z,99.90
2022-09-18T08:26:24.938Z,99.90
2022-09-18T08:28:58.591Z,99.90
2022-09-18T08:36:36.907Z,99.90
2022-09-18T08:39:18.701Z,99.90
2022-09-18T08:42:30.208Z,99.90
2022-09-18T08:45:26.573Z,99.90
2022-09-18T08:48:13.309Z,99.90
2022-09-18T08:50:56.761Z,99.90
2022-09-18T08:53:42.948Z,99.90
2022-09-18T08:56:34.246Z,99.90
2022-09-18T08:59:44.959Z,99.90
2022-09-18T09:02:41.278Z,99.90
2022-09-18T09:05:19.773Z,99.90
2022-09-18T09:08:18.396Z,99.90
2022-09-18T09:11:17.451Z,99.90
2022-09-18T09:14:03.385Z,99.90
2022-09-18T09:16:56.039Z,99.90
2022-09-18T09:19:46.285Z,99.90
2022-09-18T09:22:19.462Z,99.90
2022-09-18T09:24:55.611Z,99.90
2022-09-18T09:27:43.542Z,99.90
2022-09-18T09:30:39.883Z,99.90
2022-09-18T09:33:35.606Z,99.90
2022-09-18T09:36:30.613Z,99.90
2022-09-18T09:39:11.766Z,99.90
2022-09-18T09:42:29.336Z,99.90
2022-09-18T09:45:11.380Z,99.90
2022-09-18T09:47:56.170Z,99.90
2022-09-18T09:51:10.497Z,99.90
2022-09-18T09:53:42.334Z,99.90
2022-09-18T09:56:41.935Z,99.90
2022-09-18T09:59:31.193Z,97.50
2022-09-18T10:02:19.891Z,96.00
2022-09-18T10:05:26.649Z,96.50
2022-09-18T10:08:12.303Z,96.90
2022-09-18T10:10:59.784Z,97.60
2022-09-18T10:13:58.958Z,95.30
2022-09-18T10:16:41.733Z,94.30
2022-09-18T10:19:20.603Z,91.80
2022-09-18T10:21:54.704Z,91.00
2022-09-18T10:24:36.527Z,91.40
2022-09-18T10:27:14.453Z,91.30
2022-09-18T10:29:47.505Z,90.00
2022-09-18T10:32:35.779Z,90.00
2022-09-18T10:35:30.380Z,90.20
2022-09-18T10:40:41.714Z,91.20
2022-09-18T10:43:18.868Z,91.00
2022-09-18T10:45:56.688Z,92.30
2022-09-18T10:51:18.313Z,92.50
2022-09-18T10:54:29.793Z,91.20
2022-09-18T10:57:31.864Z,90.30
2022-09-18T11:00:12.873Z,90.40
2022-09-18T11:02:54.637Z,90.60
2022-09-18T11:05:37.742Z,91.20
2022-09-18T11:08:18.958Z,92.10
2022-09-18T11:11:07.372Z,92.00
2022-09-18T11:13:49.071Z,91.80
2022-09-18T11:16:45.948Z,91.20
2022-09-18T11:19:29.404Z,91.90
2022-09-18T11:22:05.081Z,92.80
2022-09-18T11:24:47.286Z,92.50
2022-09-18T11:27:21.773Z,93.20
2022-09-18T11:30:24.840Z,93.40
2022-09-18T11:33:05.040Z,94.00
2022-09-18T11:35:45.799Z,94.40
2022-09-18T11:38:20.587Z,94.80
2022-09-18T11:40:57.827Z,94.10
2022-09-18T11:43:37.567Z,92.40
2022-09-18T11:46:32.645Z,92.70
2022-09-18T11:49:11.721Z,93.70
2022-09-18T11:51:59.214Z,93.10
2022-09-18T11:54:54.442Z,94.20
2022-09-18T11:57:35.633Z,94.40
2022-09-18T12:00:16.980Z,94.40
2022-09-18T12:03:14.978Z,93.70
2022-09-18T12:05:57.571Z,92.20
2022-09-18T12:08:52.031Z,92.00
2022-09-18T12:11:42.905Z,91.70
2022-09-18T12:14:23.180Z,92.90
2022-09-18T12:17:24.009Z,92.70
2022-09-18T12:20:06.355Z,93.50
2022-09-18T12:22:56.563Z,94.10
2022-09-18T12:26:05.235Z,94.50
2022-09-18T12:31:36.016Z,93.70
2022-09-18T12:34:28.910Z,92.90
2022-09-18T12:37:24.732Z,93.20
2022-09-18T12:40:00.324Z,91.40
2022-09-18T12:43:02.236Z,91.20
2022-09-18T12:48:26.727Z,90.70
2022-09-18T12:51:29.558Z,91.50
2022-09-18T12:54:17.015Z,91.50
2022-09-18T12:57:31.079Z,91.80
2022-09-18T13:00:09.019Z,92.20
2022-09-18T13:02:51.599Z,91.90
2022-09-18T13:05:33.627Z,92.10
2022-09-18T13:08:32.030Z,92.40
2022-09-18T13:11:10.776Z,93.90
2022-09-18T13:16:50.204Z,94.50
2022-09-18T13:19:33.578Z,94.40
2022-09-18T13:22:12.936Z,93.60
2022-09-18T13:24:48.793Z,93.70
2022-09-18T13:27:23.159Z,94.20
2022-09-18T13:29:58.563Z,93.60
2022-09-18T13:32:37.356Z,93.50
2022-09-18T13:35:13.426Z,93.70
2022-09-18T13:37:45.947Z,93.40
2022-09-18T13:40:35.905Z,93.50
2022-09-18T13:43:21.350Z,94.20
2022-09-18T13:45:54.108Z,93.70
2022-09-18T13:48:35.889Z,93.40
2022-09-18T13:51:20.127Z,94.10
2022-09-18T13:54:11.695Z,94.30
2022-09-18T13:57:02.814Z,93.40
2022-09-18T13:59:45.478Z,93.50
2022-09-18T14:02:28.482Z,93.20
2022-09-18T14:05:05.525Z,93.90
2022-09-18T14:10:27.083Z,94.00
2022-09-18T14:13:07.426Z,93.70
2022-09-18T14:18:15.204Z,94.50
2022-09-18T14:20:52.731Z,94.80
2022-09-18T14:23:36.915Z,94.90
2022-09-18T14:26:39.335Z,95.50
2022-09-18T14:29:18.118Z,95.50
2022-09-18T14:31:55.551Z,95.70
2022-09-18T14:34:34.203Z,95.80
2022-09-18T14:37:31.011Z,95.40
2022-09-18T14:40:17.261Z,95.30
2022-09-18T14:45:32.278Z,96.10
2022-09-18T14:48:31.206Z,96.50
2022-09-18T14:51:05.866Z,96.80
2022-09-18T14:53:44.294Z,96.80
2022-09-18T14:56:23.238Z,96.80
2022-09-18T14:58:58.394Z,97.10
2022-09-18T15:01:32.679Z,97.20
2022-09-18T15:04:11.799Z,97.40
2022-09-18T15:06:50.300Z,97.20
2022-09-18T15:09:31.179Z,97.80
2022-09-18T15:14:43.991Z,98.00
2022-09-18T15:17:26.492Z,98.70
2022-09-18T15:20:00.834Z,98.20
2022-09-18T15:25:12.730Z,98.40
2022-09-18T15:27:46.285Z,98.10
2022-09-18T15:30:24.056Z,98.20
2022-09-18T15:33:01.827Z,98.20
2022-09-18T15:35:37.141Z,98.20
2022-09-18T15:38:18.956Z,98.40
2022-09-18T15:43:35.420Z,96.70
2022-09-18T15:46:10.581Z,96.90
2022-09-18T15:48:48.162Z,96.50
2022-09-18T15:54:13.167Z,96.40
2022-09-18T15:56:52.451Z,96.80
2022-09-18T15:59:36.985Z,97.00
2022-09-18T16:02:32.858Z,96.60
2022-09-18T16:05:13.232Z,96.90
2022-09-18T16:07:59.132Z,97.00
2022-09-18T16:10:34.094Z,97.00
2022-09-18T16:13:13.110Z,97.30
2022-09-18T16:15:47.512Z,97.70
2022-09-18T16:18:25.830Z,97.50
2022-09-18T16:23:37.466Z,97.80
2022-09-18T16:26:16.438Z,98.20
2022-09-18T16:29:22.353Z,98.40
2022-09-18T16:31:55.040Z,99.00
2022-09-18T16:34:28.869Z,99.40
2022-09-18T16:37:00.618Z,99.50
2022-09-18T16:39:33.218Z,99.60
2022-09-18T16:42:15.037Z,99.50
2022-09-18T16:44:47.409Z,99.40
2022-09-18T16:47:19.735Z,99.40
2022-09-18T16:54:57.470Z,99.40
2022-09-18T16:57:29.776Z,99.50
2022-09-18T17:00:07.032Z,99.50
2022-09-18T17:07:44.268Z,99.50
2022-09-18T17:10:18.550Z,99.70
2022-09-18T17:15:23.329Z,99.80
2022-09-18T17:17:55.477Z,99.90
2022-09-18T17:20:28.019Z,99.90
2022-09-18T17:23:00.237Z,99.90
2022-09-18T17:28:06.474Z,99.90
2022-09-18T17:30:42.656Z,99.90
2022-09-18T17:33:19.784Z,99.90
2022-09-18T17:38:24.711Z,99.90
2022-09-18T17:41:00.886Z,99.90
2022-09-18T17:46:08.140Z,99.90
2022-09-18T17:48:40.455Z,99.90
2022-09-18T17:51:15.656Z,99.90
2022-09-18T17:53:49.553Z,99.90
2022-09-18T17:56:21.860Z,99.90
2022-09-18T17:58:55.497Z,99.90
2022-09-18T18:01:29.839Z,99.90
2022-09-18T18:04:01.800Z,99.90
2022-09-18T18:06:35.245Z,99.90
2022-09-18T18:09:10.331Z,99.90
2022-09-18T18:14:16.537Z,99.90
2022-09-18T18:19:25.218Z,99.90
2022-09-18T18:21:56.958Z,99.90
2022-09-18T18:27:04.407Z,99.90
2022-09-18T18:29:40.137Z,99.90
2022-09-18T18:32:13.014Z,99.90
2022-09-18T18:34:44.761Z,99.90
2022-09-18T18:39:51.579Z,99.90
2022-09-18T18:45:01.470Z,99.90
2022-09-18T18:47:33.635Z,99.90
2022-09-18T18:50:06.596Z,99.90
2022-09-18T18:52:39.116Z,99.90
2022-09-18T18:55:11.077Z,99.90
2022-09-18T18:57:44.071Z,99.90
2022-09-18T19:00:16.826Z,99.90
2022-09-18T19:02:49.243Z,99.90
2022-09-18T19:08:03.652Z,99.90
2022-09-18T19:10:36.668Z,99.90
2022-09-18T19:13:08.858Z,99.90
2022-09-18T19:18:16.768Z,99.90
2022-09-18T19:25:59.462Z,99.90
2022-09-18T19:28:31.850Z,99.90
2022-09-18T19:33:37.491Z,99.90
2022-09-18T19:36:10.893Z,99.90
2022-09-18T19:38:42.889Z,99.90
2022-09-18T19:41:30.216Z,99.90
2022-09-18T19:44:04.778Z,99.90
2022-09-18T19:49:20.839Z,99.90
2022-09-18T19:51:53.453Z,99.90
2022-09-18T19:54:25.759Z,99.90
2022-09-18T19:56:59.111Z,99.90
2022-09-18T19:59:31.854Z,99.90
2022-09-18T20:02:04.024Z,99.90
2022-09-18T20:04:40.317Z,99.90
2022-09-18T20:07:13.297Z,99.90
2022-09-18T20:09:45.873Z,99.90
2022-09-18T20:12:18.040Z,99.90
2022-09-18T20:17:23.682Z,99.90
2022-09-18T20:19:58.300Z,99.90
2022-09-18T20:22:30.827Z,99.90
2022-09-18T20:25:02.649Z,99.90
2022-09-18T20:27:38.038Z,99.90
2022-09-18T20:30:12.883Z,99.90
2022-09-18T20:35:18.288Z,99.90
2022-09-18T20:37:51.453Z,99.90
2022-09-18T20:40:23.164Z,99.90
2022-09-18T20:42:55.504Z,99.90
2022-09-18T20:45:27.298Z,99.90
2022-09-18T20:50:39.081Z,99.90
2022-09-18T20:53:11.253Z,99.90
2022-09-18T20:55:43.474Z,99.90
2022-09-18T20:58:16.372Z,99.90
2022-09-18T21:00:48.974Z,99.90
2022-09-18T21:03:22.926Z,99.90
2022-09-18T21:08:48.502Z,99.90
2022-09-18T21:11:31.241Z,99.90
2022-09-18T21:14:05.108Z,99.90
2022-09-18T21:16:42.871Z,99.90
2022-09-18T21:19:19.639Z,99.90
2022-09-18T21:21:51.598Z,99.90
2022-09-18T21:24:24.577Z,99.90
2022-09-18T21:26:56.273Z,99.90
2022-09-18T21:34:35.390Z,99.90
2022-09-18T21:37:08.610Z,99.90
2022-09-18T21:39:42.435Z,99.90
2022-09-18T21:42:16.131Z,99.90
2022-09-18T21:47:21.693Z,99.90
2022-09-18T21:52:26.336Z,99.90
2022-09-18T21:54:58.022Z,99.90
2022-09-18T21:57:30.783Z,99.90
2022-09-18T22:00:06.281Z,99.90
2022-09-18T22:05:17.223Z,99.90
2022-09-18T22:12:54.492Z,99.90
2022-09-18T22:15:26.425Z,99.90
2022-09-18T22:17:59.032Z,99.90
2022-09-18T22:20:31.237Z,99.90
2022-09-18T22:23:02.944Z,99.90
2022-09-18T22:25:35.477Z,99.90
2022-09-18T22:30:40.266Z,99.90
2022-09-18T22:35:44.947Z,99.90
2022-09-18T22:38:17.089Z,99.90
2022-09-18T22:40:49.217Z,99.90
2022-09-18T22:43:22.111Z,99.90
2022-09-18T22:46:05.005Z,99.90
2022-09-18T22:48:37.562Z,99.90
2022-09-18T22:51:15.665Z,99.90
2022-09-18T22:53:57.285Z,99.90
2022-09-18T22:56:30.212Z,99.90
2022-09-18T23:01:48.135Z,99.90
2022-09-18T23:04:23.399Z,99.90
2022-09-18T23:06:57.534Z,99.90
2022-09-18T23:09:29.960Z,99.90
2022-09-18T23:14:35.115Z,99.90
2022-09-18T23:17:07.479Z,99.90
2022-09-18T23:19:39.610Z,99.90
2022-09-18T23:29:49.776Z,99.90
2022-09-18T23:32:22.316Z,99.90
2022-09-18T23:34:55.128Z,99.90
2022-09-18T23:39:59.769Z,99.90
2022-09-18T23:45:04.617Z,99.90
2022-09-18T23:47:38.502Z,99.90
2022-09-18T23:50:10.651Z,99.90
2022-09-18T23:52:44.153Z,99.90
2022-09-18T23:55:16.286Z,99.90
